sensor_id;sensor_type;location;lat;lon;timestamp;P1;durP1;ratioP1;P2;durP2;ratioP2
15082;SDS011;7640;53.116;6.878;2022-12-18T00:00:07;140.43;;;45.90;;
15082;SDS011;7640;53.116;6.878;2022-12-18T00:02:37;113.37;;;40.30;;
15082;SDS011;7640;53.116;6.878;2022-12-18T00:05:07;105.87;;;36.70;;
15082;SDS011;7640;53.116;6.878;2022-12-18T00:07:35;118.97;;;38.70;;
15082;SDS011;7640;53.116;6.878;2022-12-18T00:10:05;106.03;;;36.73;;
15082;SDS011;7640;53.116;6.878;2022-12-18T00:12:34;112.67;;;39.63;;
15082;SDS011;7640;53.116;6.878;2022-12-18T00:15:03;112.90;;;32.67;;
15082;SDS011;7640;53.116;6.878;2022-12-18T00:17:32;122.77;;;40.60;;
15082;SDS011;7640;53.116;6.878;2022-12-18T00:20:00;106.17;;;33.63;;
15082;SDS011;7640;53.116;6.878;2022-12-18T00:22:30;115.90;;;40.67;;
15082;SDS011;7640;53.116;6.878;2022-12-18T00:24:58;118.20;;;38.63;;
15082;SDS011;7640;53.116;6.878;2022-12-18T00:27:26;113.63;;;37.13;;
15082;SDS011;7640;53.116;6.878;2022-12-18T00:29:55;114.20;;;40.30;;
15082;SDS011;7640;53.116;6.878;2022-12-18T00:32:23;111.67;;;37.73;;
15082;SDS011;7640;53.116;6.878;2022-12-18T00:34:51;99.63;;;34.53;;
15082;SDS011;7640;53.116;6.878;2022-12-18T00:37:19;120.83;;;43.03;;
15082;SDS011;7640;53.116;6.878;2022-12-18T00:39:50;138.80;;;55.93;;
15082;SDS011;7640;53.116;6.878;2022-12-18T00:42:18;151.27;;;63.73;;
15082;SDS011;7640;53.116;6.878;2022-12-18T00:45:04;112.93;;;41.60;;
15082;SDS011;7640;53.116;6.878;2022-12-18T00:47:38;122.53;;;41.70;;
15082;SDS011;7640;53.116;6.878;2022-12-18T00:50:07;127.53;;;38.27;;
15082;SDS011;7640;53.116;6.878;2022-12-18T00:52:36;123.70;;;41.27;;
15082;SDS011;7640;53.116;6.878;2022-12-18T00:55:06;125.83;;;39.33;;
15082;SDS011;7640;53.116;6.878;2022-12-18T00:57:36;113.80;;;37.13;;
15082;SDS011;7640;53.116;6.878;2022-12-18T01:00:06;124.37;;;38.77;;
15082;SDS011;7640;53.116;6.878;2022-12-18T01:02:37;131.40;;;38.83;;
15082;SDS011;7640;53.116;6.878;2022-12-18T01:05:07;127.20;;;46.63;;
15082;SDS011;7640;53.116;6.878;2022-12-18T01:07:36;135.53;;;44.80;;
15082;SDS011;7640;53.116;6.878;2022-12-18T01:10:04;122.77;;;39.03;;
15082;SDS011;7640;53.116;6.878;2022-12-18T01:12:37;114.50;;;36.80;;
15082;SDS011;7640;53.116;6.878;2022-12-18T01:15:06;119.27;;;41.70;;
15082;SDS011;7640;53.116;6.878;2022-12-18T01:17:36;108.40;;;34.70;;
15082;SDS011;7640;53.116;6.878;2022-12-18T01:20:04;128.77;;;36.90;;
15082;SDS011;7640;53.116;6.878;2022-12-18T01:22:34;116.00;;;35.77;;
15082;SDS011;7640;53.116;6.878;2022-12-18T01:25:03;112.87;;;35.30;;
15082;SDS011;7640;53.116;6.878;2022-12-18T01:27:34;114.63;;;35.77;;
15082;SDS011;7640;53.116;6.878;2022-12-18T01:30:02;127.00;;;37.70;;
15082;SDS011;7640;53.116;6.878;2022-12-18T01:32:32;115.80;;;36.60;;
15082;SDS011;7640;53.116;6.878;2022-12-18T01:35:01;118.80;;;34.40;;
15082;SDS011;7640;53.116;6.878;2022-12-18T01:37:29;112.17;;;35.73;;
15082;SDS011;7640;53.116;6.878;2022-12-18T01:39:58;116.70;;;35.60;;
15082;SDS011;7640;53.116;6.878;2022-12-18T01:42:26;131.30;;;37.40;;
15082;SDS011;7640;53.116;6.878;2022-12-18T01:44:57;121.70;;;37.90;;
15082;SDS011;7640;53.116;6.878;2022-12-18T01:47:32;122.03;;;36.93;;
15082;SDS011;7640;53.116;6.878;2022-12-18T01:50:07;126.70;;;38.17;;
15082;SDS011;7640;53.116;6.878;2022-12-18T01:52:40;119.80;;;36.73;;
15082;SDS011;7640;53.116;6.878;2022-12-18T01:55:10;137.43;;;38.87;;
15082;SDS011;7640;53.116;6.878;2022-12-18T01:57:41;123.33;;;38.30;;
15082;SDS011;7640;53.116;6.878;2022-12-18T02:00:12;135.30;;;39.23;;
15082;SDS011;7640;53.116;6.878;2022-12-18T02:02:47;141.63;;;43.10;;
15082;SDS011;7640;53.116;6.878;2022-12-18T02:05:16;135.40;;;41.23;;
15082;SDS011;7640;53.116;6.878;2022-12-18T02:07:52;127.80;;;39.30;;
15082;SDS011;7640;53.116;6.878;2022-12-18T02:10:31;134.33;;;39.07;;
15082;SDS011;7640;53.116;6.878;2022-12-18T02:13:08;128.10;;;41.63;;
15082;SDS011;7640;53.116;6.878;2022-12-18T02:15:44;130.07;;;40.70;;
15082;SDS011;7640;53.116;6.878;2022-12-18T02:18:19;152.13;;;44.20;;
15082;SDS011;7640;53.116;6.878;2022-12-18T02:20:53;135.50;;;42.30;;
15082;SDS011;7640;53.116;6.878;2022-12-18T02:23:33;140.53;;;42.70;;
15082;SDS011;7640;53.116;6.878;2022-12-18T02:26:17;143.57;;;40.13;;
15082;SDS011;7640;53.116;6.878;2022-12-18T02:28:49;143.07;;;43.40;;
15082;SDS011;7640;53.116;6.878;2022-12-18T02:31:23;145.97;;;40.87;;
15082;SDS011;7640;53.116;6.878;2022-12-18T02:33:55;142.70;;;41.83;;
15082;SDS011;7640;53.116;6.878;2022-12-18T02:36:27;140.20;;;41.00;;
15082;SDS011;7640;53.116;6.878;2022-12-18T02:38:57;129.53;;;41.97;;
15082;SDS011;7640;53.116;6.878;2022-12-18T02:41:28;138.83;;;43.70;;
15082;SDS011;7640;53.116;6.878;2022-12-18T02:43:59;133.93;;;41.47;;
15082;SDS011;7640;53.116;6.878;2022-12-18T02:46:31;138.23;;;42.07;;
15082;SDS011;7640;53.116;6.878;2022-12-18T02:49:04;147.27;;;43.60;;
15082;SDS011;7640;53.116;6.878;2022-12-18T02:51:45;136.50;;;39.73;;
15082;SDS011;7640;53.116;6.878;2022-12-18T02:54:27;139.77;;;41.67;;
15082;SDS011;7640;53.116;6.878;2022-12-18T02:57:22;144.50;;;44.83;;
15082;SDS011;7640;53.116;6.878;2022-12-18T02:59:58;136.27;;;42.20;;
15082;SDS011;7640;53.116;6.878;2022-12-18T03:02:33;123.83;;;42.53;;
15082;SDS011;7640;53.116;6.878;2022-12-18T03:05:08;125.70;;;42.37;;
15082;SDS011;7640;53.116;6.878;2022-12-18T03:07:42;130.63;;;42.93;;
15082;SDS011;7640;53.116;6.878;2022-12-18T03:10:16;125.60;;;39.97;;
15082;SDS011;7640;53.116;6.878;2022-12-18T03:12:52;136.03;;;41.70;;
15082;SDS011;7640;53.116;6.878;2022-12-18T03:15:27;131.93;;;40.90;;
15082;SDS011;7640;53.116;6.878;2022-12-18T03:17:59;132.17;;;42.63;;
15082;SDS011;7640;53.116;6.878;2022-12-18T03:20:35;136.77;;;43.23;;
15082;SDS011;7640;53.116;6.878;2022-12-18T03:23:09;124.63;;;40.10;;
15082;SDS011;7640;53.116;6.878;2022-12-18T03:25:44;119.30;;;41.27;;
15082;SDS011;7640;53.116;6.878;2022-12-18T03:28:15;123.70;;;40.43;;
15082;SDS011;7640;53.116;6.878;2022-12-18T03:30:50;137.43;;;40.07;;
15082;SDS011;7640;53.116;6.878;2022-12-18T03:33:24;130.27;;;42.93;;
15082;SDS011;7640;53.116;6.878;2022-12-18T03:35:56;136.60;;;43.57;;
15082;SDS011;7640;53.116;6.878;2022-12-18T03:38:25;139.83;;;41.53;;
15082;SDS011;7640;53.116;6.878;2022-12-18T03:40:56;127.83;;;41.87;;
15082;SDS011;7640;53.116;6.878;2022-12-18T03:43:32;140.93;;;43.60;;
15082;SDS011;7640;53.116;6.878;2022-12-18T03:46:11;140.37;;;44.90;;
15082;SDS011;7640;53.116;6.878;2022-12-18T03:48:48;131.27;;;42.53;;
15082;SDS011;7640;53.116;6.878;2022-12-18T03:51:24;131.00;;;42.70;;
15082;SDS011;7640;53.116;6.878;2022-12-18T03:53:57;137.50;;;43.30;;
15082;SDS011;7640;53.116;6.878;2022-12-18T03:56:31;130.40;;;44.07;;
15082;SDS011;7640;53.116;6.878;2022-12-18T03:59:06;130.73;;;41.47;;
15082;SDS011;7640;53.116;6.878;2022-12-18T04:01:38;122.60;;;40.93;;
15082;SDS011;7640;53.116;6.878;2022-12-18T04:04:10;111.70;;;38.03;;
15082;SDS011;7640;53.116;6.878;2022-12-18T04:06:40;112.10;;;37.83;;
15082;SDS011;7640;53.116;6.878;2022-12-18T04:09:11;103.37;;;38.27;;
15082;SDS011;7640;53.116;6.878;2022-12-18T04:11:40;103.93;;;37.37;;
15082;SDS011;7640;53.116;6.878;2022-12-18T04:14:11;101.80;;;38.63;;
15082;SDS011;7640;53.116;6.878;2022-12-18T04:16:43;96.80;;;36.60;;
15082;SDS011;7640;53.116;6.878;2022-12-18T04:19:12;105.90;;;36.43;;
15082;SDS011;7640;53.116;6.878;2022-12-18T04:21:40;93.80;;;35.00;;
15082;SDS011;7640;53.116;6.878;2022-12-18T04:24:08;95.80;;;34.47;;
15082;SDS011;7640;53.116;6.878;2022-12-18T04:26:37;96.37;;;35.83;;
15082;SDS011;7640;53.116;6.878;2022-12-18T04:29:05;82.40;;;34.53;;
15082;SDS011;7640;53.116;6.878;2022-12-18T04:31:35;84.07;;;35.27;;
15082;SDS011;7640;53.116;6.878;2022-12-18T04:34:04;86.00;;;33.10;;
15082;SDS011;7640;53.116;6.878;2022-12-18T04:36:32;89.27;;;34.03;;
15082;SDS011;7640;53.116;6.878;2022-12-18T04:39:00;83.20;;;33.87;;
15082;SDS011;7640;53.116;6.878;2022-12-18T04:41:28;86.90;;;33.37;;
15082;SDS011;7640;53.116;6.878;2022-12-18T04:43:57;82.03;;;32.90;;
15082;SDS011;7640;53.116;6.878;2022-12-18T04:46:25;88.37;;;34.47;;
15082;SDS011;7640;53.116;6.878;2022-12-18T04:48:55;80.53;;;33.83;;
15082;SDS011;7640;53.116;6.878;2022-12-18T04:51:23;90.70;;;34.63;;
15082;SDS011;7640;53.116;6.878;2022-12-18T04:53:52;83.37;;;32.07;;
15082;SDS011;7640;53.116;6.878;2022-12-18T04:56:20;84.63;;;33.20;;
15082;SDS011;7640;53.116;6.878;2022-12-18T04:58:49;85.07;;;30.80;;
15082;SDS011;7640;53.116;6.878;2022-12-18T05:01:17;82.93;;;32.17;;
15082;SDS011;7640;53.116;6.878;2022-12-18T05:03:46;81.33;;;30.97;;
15082;SDS011;7640;53.116;6.878;2022-12-18T05:06:16;88.10;;;33.23;;
15082;SDS011;7640;53.116;6.878;2022-12-18T05:08:44;85.90;;;30.97;;
15082;SDS011;7640;53.116;6.878;2022-12-18T05:11:13;83.87;;;30.70;;
15082;SDS011;7640;53.116;6.878;2022-12-18T05:13:43;78.10;;;30.87;;
15082;SDS011;7640;53.116;6.878;2022-12-18T05:16:12;86.70;;;31.13;;
15082;SDS011;7640;53.116;6.878;2022-12-18T05:18:41;87.37;;;32.57;;
15082;SDS011;7640;53.116;6.878;2022-12-18T05:21:10;87.27;;;29.30;;
15082;SDS011;7640;53.116;6.878;2022-12-18T05:23:39;80.07;;;30.60;;
15082;SDS011;7640;53.116;6.878;2022-12-18T05:26:08;78.77;;;30.60;;
15082;SDS011;7640;53.116;6.878;2022-12-18T05:28:42;85.40;;;30.40;;
15082;SDS011;7640;53.116;6.878;2022-12-18T05:31:11;76.53;;;30.20;;
15082;SDS011;7640;53.116;6.878;2022-12-18T05:33:39;83.57;;;32.27;;
15082;SDS011;7640;53.116;6.878;2022-12-18T05:36:09;75.53;;;30.70;;
15082;SDS011;7640;53.116;6.878;2022-12-18T05:38:39;83.73;;;32.10;;
15082;SDS011;7640;53.116;6.878;2022-12-18T05:41:08;74.97;;;30.00;;
15082;SDS011;7640;53.116;6.878;2022-12-18T05:43:37;83.87;;;31.63;;
15082;SDS011;7640;53.116;6.878;2022-12-18T05:46:09;77.47;;;31.77;;
15082;SDS011;7640;53.116;6.878;2022-12-18T05:48:41;80.70;;;31.30;;
15082;SDS011;7640;53.116;6.878;2022-12-18T05:51:11;75.70;;;30.07;;
15082;SDS011;7640;53.116;6.878;2022-12-18T05:53:44;77.83;;;29.97;;
15082;SDS011;7640;53.116;6.878;2022-12-18T05:56:13;71.83;;;29.00;;
15082;SDS011;7640;53.116;6.878;2022-12-18T05:58:44;68.13;;;27.90;;
15082;SDS011;7640;53.116;6.878;2022-12-18T06:01:14;73.97;;;30.00;;
15082;SDS011;7640;53.116;6.878;2022-12-18T06:03:45;73.47;;;28.50;;
15082;SDS011;7640;53.116;6.878;2022-12-18T06:06:14;65.10;;;29.83;;
15082;SDS011;7640;53.116;6.878;2022-12-18T06:08:45;63.53;;;27.77;;
15082;SDS011;7640;53.116;6.878;2022-12-18T06:11:16;71.90;;;29.53;;
15082;SDS011;7640;53.116;6.878;2022-12-18T06:13:49;70.43;;;28.80;;
15082;SDS011;7640;53.116;6.878;2022-12-18T06:16:23;73.87;;;29.17;;
15082;SDS011;7640;53.116;6.878;2022-12-18T06:18:55;65.93;;;27.20;;
15082;SDS011;7640;53.116;6.878;2022-12-18T06:21:25;73.47;;;29.37;;
15082;SDS011;7640;53.116;6.878;2022-12-18T06:23:55;70.03;;;29.30;;
15082;SDS011;7640;53.116;6.878;2022-12-18T06:26:24;65.70;;;29.27;;
15082;SDS011;7640;53.116;6.878;2022-12-18T06:28:53;69.67;;;29.53;;
15082;SDS011;7640;53.116;6.878;2022-12-18T06:31:22;65.00;;;27.87;;
15082;SDS011;7640;53.116;6.878;2022-12-18T06:33:55;69.50;;;28.77;;
15082;SDS011;7640;53.116;6.878;2022-12-18T06:36:24;63.27;;;27.63;;
15082;SDS011;7640;53.116;6.878;2022-12-18T06:38:52;68.07;;;29.03;;
15082;SDS011;7640;53.116;6.878;2022-12-18T06:41:21;61.10;;;27.63;;
15082;SDS011;7640;53.116;6.878;2022-12-18T06:43:50;60.00;;;27.10;;
15082;SDS011;7640;53.116;6.878;2022-12-18T06:46:24;63.23;;;26.70;;
15082;SDS011;7640;53.116;6.878;2022-12-18T06:48:53;61.33;;;28.00;;
15082;SDS011;7640;53.116;6.878;2022-12-18T06:51:22;65.00;;;27.13;;
15082;SDS011;7640;53.116;6.878;2022-12-18T06:53:51;67.97;;;27.50;;
15082;SDS011;7640;53.116;6.878;2022-12-18T06:56:20;64.40;;;27.20;;
15082;SDS011;7640;53.116;6.878;2022-12-18T06:58:49;67.83;;;29.30;;
15082;SDS011;7640;53.116;6.878;2022-12-18T07:01:17;60.73;;;26.97;;
15082;SDS011;7640;53.116;6.878;2022-12-18T07:03:46;60.53;;;26.77;;
15082;SDS011;7640;53.116;6.878;2022-12-18T07:06:19;57.30;;;26.77;;
15082;SDS011;7640;53.116;6.878;2022-12-18T07:08:50;57.83;;;25.13;;
15082;SDS011;7640;53.116;6.878;2022-12-18T07:11:19;60.43;;;27.83;;
15082;SDS011;7640;53.116;6.878;2022-12-18T07:13:49;60.30;;;26.00;;
15082;SDS011;7640;53.116;6.878;2022-12-18T07:16:17;59.70;;;26.53;;
15082;SDS011;7640;53.116;6.878;2022-12-18T07:18:51;57.67;;;27.73;;
15082;SDS011;7640;53.116;6.878;2022-12-18T07:21:20;59.73;;;27.70;;
15082;SDS011;7640;53.116;6.878;2022-12-18T07:23:49;54.43;;;26.23;;
15082;SDS011;7640;53.116;6.878;2022-12-18T07:26:18;57.70;;;25.77;;
15082;SDS011;7640;53.116;6.878;2022-12-18T07:28:49;54.03;;;26.47;;
15082;SDS011;7640;53.116;6.878;2022-12-18T07:31:19;52.87;;;25.50;;
15082;SDS011;7640;53.116;6.878;2022-12-18T07:33:49;53.97;;;26.23;;
15082;SDS011;7640;53.116;6.878;2022-12-18T07:36:17;58.53;;;27.70;;
15082;SDS011;7640;53.116;6.878;2022-12-18T07:38:47;60.70;;;25.20;;
15082;SDS011;7640;53.116;6.878;2022-12-18T07:41:17;55.13;;;25.70;;
15082;SDS011;7640;53.116;6.878;2022-12-18T07:43:46;53.10;;;25.80;;
15082;SDS011;7640;53.116;6.878;2022-12-18T07:46:17;44.73;;;24.10;;
15082;SDS011;7640;53.116;6.878;2022-12-18T07:48:46;52.53;;;25.10;;
15082;SDS011;7640;53.116;6.878;2022-12-18T07:51:16;53.17;;;24.37;;
15082;SDS011;7640;53.116;6.878;2022-12-18T07:53:45;47.63;;;23.93;;
15082;SDS011;7640;53.116;6.878;2022-12-18T07:56:18;54.80;;;23.77;;
15082;SDS011;7640;53.116;6.878;2022-12-18T07:58:55;49.20;;;23.43;;
15082;SDS011;7640;53.116;6.878;2022-12-18T08:01:24;47.53;;;23.33;;
15082;SDS011;7640;53.116;6.878;2022-12-18T08:03:52;52.30;;;23.63;;
15082;SDS011;7640;53.116;6.878;2022-12-18T08:06:20;51.10;;;23.43;;
15082;SDS011;7640;53.116;6.878;2022-12-18T08:08:50;47.97;;;22.57;;
15082;SDS011;7640;53.116;6.878;2022-12-18T08:11:20;42.20;;;23.30;;
15082;SDS011;7640;53.116;6.878;2022-12-18T08:13:49;46.90;;;22.93;;
15082;SDS011;7640;53.116;6.878;2022-12-18T08:16:19;49.63;;;23.37;;
15082;SDS011;7640;53.116;6.878;2022-12-18T08:18:49;42.00;;;21.97;;
15082;SDS011;7640;53.116;6.878;2022-12-18T08:21:20;46.30;;;22.13;;
15082;SDS011;7640;53.116;6.878;2022-12-18T08:23:51;48.13;;;24.37;;
15082;SDS011;7640;53.116;6.878;2022-12-18T08:26:21;51.37;;;24.57;;
15082;SDS011;7640;53.116;6.878;2022-12-18T08:28:51;49.20;;;24.30;;
15082;SDS011;7640;53.116;6.878;2022-12-18T08:31:22;47.10;;;22.50;;
15082;SDS011;7640;53.116;6.878;2022-12-18T08:33:52;45.83;;;22.40;;
15082;SDS011;7640;53.116;6.878;2022-12-18T08:36:21;44.37;;;21.77;;
15082;SDS011;7640;53.116;6.878;2022-12-18T08:38:51;46.17;;;22.33;;
15082;SDS011;7640;53.116;6.878;2022-12-18T08:41:20;50.30;;;22.20;;
15082;SDS011;7640;53.116;6.878;2022-12-18T08:43:49;46.70;;;22.87;;
15082;SDS011;7640;53.116;6.878;2022-12-18T08:46:37;44.43;;;22.67;;
15082;SDS011;7640;53.116;6.878;2022-12-18T08:49:07;42.40;;;22.30;;
15082;SDS011;7640;53.116;6.878;2022-12-18T08:51:37;39.73;;;20.30;;
15082;SDS011;7640;53.116;6.878;2022-12-18T08:54:06;42.73;;;22.37;;
15082;SDS011;7640;53.116;6.878;2022-12-18T08:56:36;43.10;;;22.40;;
15082;SDS011;7640;53.116;6.878;2022-12-18T08:59:04;35.20;;;19.90;;
15082;SDS011;7640;53.116;6.878;2022-12-18T09:01:32;35.20;;;19.20;;
15082;SDS011;7640;53.116;6.878;2022-12-18T09:04:02;40.07;;;21.07;;
15082;SDS011;7640;53.116;6.878;2022-12-18T09:06:32;38.90;;;20.00;;
15082;SDS011;7640;53.116;6.878;2022-12-18T09:09:02;39.87;;;20.30;;
15082;SDS011;7640;53.116;6.878;2022-12-18T09:11:31;39.47;;;20.13;;
15082;SDS011;7640;53.116;6.878;2022-12-18T09:14:00;36.77;;;20.53;;
15082;SDS011;7640;53.116;6.878;2022-12-18T09:16:29;38.20;;;20.80;;
15082;SDS011;7640;53.116;6.878;2022-12-18T09:19:03;35.93;;;19.67;;
15082;SDS011;7640;53.116;6.878;2022-12-18T09:21:32;36.30;;;18.90;;
15082;SDS011;7640;53.116;6.878;2022-12-18T09:24:03;36.00;;;20.57;;
15082;SDS011;7640;53.116;6.878;2022-12-18T09:26:34;34.07;;;19.13;;
15082;SDS011;7640;53.116;6.878;2022-12-18T09:29:04;31.43;;;18.73;;
15082;SDS011;7640;53.116;6.878;2022-12-18T09:31:34;34.63;;;19.60;;
15082;SDS011;7640;53.116;6.878;2022-12-18T09:34:05;35.60;;;19.17;;
15082;SDS011;7640;53.116;6.878;2022-12-18T09:36:33;33.93;;;18.17;;
15082;SDS011;7640;53.116;6.878;2022-12-18T09:39:02;34.37;;;19.30;;
15082;SDS011;7640;53.116;6.878;2022-12-18T09:41:39;32.17;;;17.73;;
15082;SDS011;7640;53.116;6.878;2022-12-18T09:44:19;32.47;;;18.20;;
15082;SDS011;7640;53.116;6.878;2022-12-18T09:46:53;33.97;;;19.20;;
15082;SDS011;7640;53.116;6.878;2022-12-18T09:49:34;29.33;;;17.50;;
15082;SDS011;7640;53.116;6.878;2022-12-18T09:52:09;28.30;;;17.57;;
15082;SDS011;7640;53.116;6.878;2022-12-18T09:54:44;26.20;;;16.90;;
15082;SDS011;7640;53.116;6.878;2022-12-18T09:57:18;32.60;;;17.70;;
15082;SDS011;7640;53.116;6.878;2022-12-18T09:59:52;27.97;;;16.93;;
15082;SDS011;7640;53.116;6.878;2022-12-18T10:02:25;27.63;;;15.90;;
15082;SDS011;7640;53.116;6.878;2022-12-18T10:04:59;26.47;;;14.77;;
15082;SDS011;7640;53.116;6.878;2022-12-18T10:07:35;26.70;;;15.97;;
15082;SDS011;7640;53.116;6.878;2022-12-18T10:10:23;22.47;;;14.83;;
15082;SDS011;7640;53.116;6.878;2022-12-18T10:13:02;25.23;;;14.73;;
15082;SDS011;7640;53.116;6.878;2022-12-18T10:15:41;24.07;;;14.50;;
15082;SDS011;7640;53.116;6.878;2022-12-18T10:18:25;21.40;;;13.23;;
15082;SDS011;7640;53.116;6.878;2022-12-18T10:21:15;21.47;;;13.30;;
15082;SDS011;7640;53.116;6.878;2022-12-18T10:23:53;24.63;;;13.30;;
15082;SDS011;7640;53.116;6.878;2022-12-18T10:26:30;21.23;;;13.47;;
15082;SDS011;7640;53.116;6.878;2022-12-18T10:29:00;21.30;;;13.83;;
15082;SDS011;7640;53.116;6.878;2022-12-18T10:31:31;21.07;;;13.50;;
15082;SDS011;7640;53.116;6.878;2022-12-18T10:33:59;20.37;;;12.67;;
15082;SDS011;7640;53.116;6.878;2022-12-18T10:36:29;20.73;;;11.57;;
15082;SDS011;7640;53.116;6.878;2022-12-18T10:39:00;19.07;;;12.10;;
15082;SDS011;7640;53.116;6.878;2022-12-18T10:41:43;17.13;;;11.20;;
15082;SDS011;7640;53.116;6.878;2022-12-18T10:44:15;22.40;;;12.77;;
15082;SDS011;7640;53.116;6.878;2022-12-18T10:46:47;19.03;;;11.80;;
15082;SDS011;7640;53.116;6.878;2022-12-18T10:49:20;18.23;;;11.57;;
15082;SDS011;7640;53.116;6.878;2022-12-18T10:51:52;18.73;;;11.27;;
15082;SDS011;7640;53.116;6.878;2022-12-18T10:54:45;17.53;;;10.90;;
15082;SDS011;7640;53.116;6.878;2022-12-18T10:57:27;18.33;;;11.10;;
15082;SDS011;7640;53.116;6.878;2022-12-18T11:00:03;18.13;;;10.17;;
15082;SDS011;7640;53.116;6.878;2022-12-18T11:02:52;17.70;;;11.23;;
15082;SDS011;7640;53.116;6.878;2022-12-18T11:05:23;17.07;;;11.13;;
15082;SDS011;7640;53.116;6.878;2022-12-18T11:08:01;17.73;;;10.17;;
15082;SDS011;7640;53.116;6.878;2022-12-18T11:10:31;15.73;;;9.77;;
15082;SDS011;7640;53.116;6.878;2022-12-18T11:13:11;19.40;;;10.93;;
15082;SDS011;7640;53.116;6.878;2022-12-18T11:15:43;19.13;;;10.47;;
15082;SDS011;7640;53.116;6.878;2022-12-18T11:18:19;19.10;;;11.00;;
15082;SDS011;7640;53.116;6.878;2022-12-18T11:20:53;19.97;;;11.63;;
15082;SDS011;7640;53.116;6.878;2022-12-18T11:23:25;18.20;;;11.20;;
15082;SDS011;7640;53.116;6.878;2022-12-18T11:25:58;19.93;;;11.80;;
15082;SDS011;7640;53.116;6.878;2022-12-18T11:28:39;17.93;;;11.17;;
15082;SDS011;7640;53.116;6.878;2022-12-18T11:31:12;15.27;;;10.33;;
15082;SDS011;7640;53.116;6.878;2022-12-18T11:33:59;13.53;;;10.00;;
15082;SDS011;7640;53.116;6.878;2022-12-18T11:36:51;14.67;;;9.27;;
15082;SDS011;7640;53.116;6.878;2022-12-18T11:39:23;15.60;;;9.63;;
15082;SDS011;7640;53.116;6.878;2022-12-18T11:41:59;13.60;;;8.70;;
15082;SDS011;7640;53.116;6.878;2022-12-18T11:44:38;15.10;;;9.30;;
15082;SDS011;7640;53.116;6.878;2022-12-18T11:47:19;14.57;;;9.00;;
15082;SDS011;7640;53.116;6.878;2022-12-18T11:49:54;13.97;;;8.87;;
15082;SDS011;7640;53.116;6.878;2022-12-18T11:52:28;14.83;;;9.50;;
15082;SDS011;7640;53.116;6.878;2022-12-18T11:55:09;15.80;;;10.03;;
15082;SDS011;7640;53.116;6.878;2022-12-18T11:57:43;15.03;;;9.07;;
15082;SDS011;7640;53.116;6.878;2022-12-18T12:00:19;14.87;;;9.30;;
15082;SDS011;7640;53.116;6.878;2022-12-18T12:06:21;15.53;;;9.47;;
15082;SDS011;7640;53.116;6.878;2022-12-18T12:09:02;13.93;;;8.93;;
15082;SDS011;7640;53.116;6.878;2022-12-18T12:11:44;14.70;;;9.27;;
15082;SDS011;7640;53.116;6.878;2022-12-18T12:14:26;16.27;;;10.63;;
15082;SDS011;7640;53.116;6.878;2022-12-18T12:17:10;16.50;;;9.83;;
15082;SDS011;7640;53.116;6.878;2022-12-18T12:19:50;13.77;;;9.30;;
15082;SDS011;7640;53.116;6.878;2022-12-18T12:22:31;19.43;;;10.60;;
15082;SDS011;7640;53.116;6.878;2022-12-18T12:25:18;15.90;;;9.87;;
15082;SDS011;7640;53.116;6.878;2022-12-18T12:28:01;14.73;;;9.33;;
15082;SDS011;7640;53.116;6.878;2022-12-18T12:30:44;16.83;;;9.83;;
15082;SDS011;7640;53.116;6.878;2022-12-18T12:33:26;13.13;;;8.80;;
15082;SDS011;7640;53.116;6.878;2022-12-18T12:36:07;14.50;;;9.10;;
15082;SDS011;7640;53.116;6.878;2022-12-18T12:38:44;14.83;;;8.60;;
15082;SDS011;7640;53.116;6.878;2022-12-18T12:41:18;15.80;;;9.90;;
15082;SDS011;7640;53.116;6.878;2022-12-18T12:44:13;13.77;;;8.80;;
15082;SDS011;7640;53.116;6.878;2022-12-18T12:46:48;13.77;;;8.63;;
15082;SDS011;7640;53.116;6.878;2022-12-18T12:49:20;14.77;;;8.80;;
15082;SDS011;7640;53.116;6.878;2022-12-18T12:51:56;14.60;;;9.07;;
15082;SDS011;7640;53.116;6.878;2022-12-18T12:54:33;14.93;;;10.00;;
15082;SDS011;7640;53.116;6.878;2022-12-18T12:57:04;16.43;;;9.47;;
15082;SDS011;7640;53.116;6.878;2022-12-18T12:59:45;15.40;;;9.57;;
15082;SDS011;7640;53.116;6.878;2022-12-18T13:02:21;13.07;;;8.77;;
15082;SDS011;7640;53.116;6.878;2022-12-18T13:05:00;14.03;;;8.30;;
15082;SDS011;7640;53.116;6.878;2022-12-18T13:07:37;16.10;;;9.80;;
15082;SDS011;7640;53.116;6.878;2022-12-18T13:10:26;13.77;;;8.73;;
15082;SDS011;7640;53.116;6.878;2022-12-18T13:13:01;15.63;;;9.43;;
15082;SDS011;7640;53.116;6.878;2022-12-18T13:15:36;15.10;;;9.17;;
15082;SDS011;7640;53.116;6.878;2022-12-18T13:18:11;14.33;;;9.30;;
15082;SDS011;7640;53.116;6.878;2022-12-18T13:20:49;17.27;;;9.87;;
15082;SDS011;7640;53.116;6.878;2022-12-18T13:23:33;15.40;;;9.60;;
15082;SDS011;7640;53.116;6.878;2022-12-18T13:28:59;13.80;;;7.90;;
15082;SDS011;7640;53.116;6.878;2022-12-18T13:38:18;14.43;;;8.97;;
15082;SDS011;7640;53.116;6.878;2022-12-18T13:40:55;15.77;;;9.43;;
15082;SDS011;7640;53.116;6.878;2022-12-18T13:43:30;15.73;;;9.73;;
15082;SDS011;7640;53.116;6.878;2022-12-18T13:46:05;13.33;;;8.43;;
15082;SDS011;7640;53.116;6.878;2022-12-18T13:48:53;13.60;;;8.60;;
15082;SDS011;7640;53.116;6.878;2022-12-18T13:51:29;13.00;;;8.43;;
15082;SDS011;7640;53.116;6.878;2022-12-18T13:54:01;14.10;;;8.50;;
15082;SDS011;7640;53.116;6.878;2022-12-18T13:56:33;11.80;;;7.87;;
15082;SDS011;7640;53.116;6.878;2022-12-18T13:59:17;14.03;;;9.03;;
15082;SDS011;7640;53.116;6.878;2022-12-18T14:01:52;15.03;;;9.33;;
15082;SDS011;7640;53.116;6.878;2022-12-18T14:04:25;12.73;;;8.77;;
15082;SDS011;7640;53.116;6.878;2022-12-18T14:06:57;16.03;;;9.43;;
15082;SDS011;7640;53.116;6.878;2022-12-18T14:09:30;14.97;;;9.70;;
15082;SDS011;7640;53.116;6.878;2022-12-18T14:12:04;16.97;;;10.47;;
15082;SDS011;7640;53.116;6.878;2022-12-18T14:14:52;15.83;;;10.43;;
15082;SDS011;7640;53.116;6.878;2022-12-18T14:17:21;17.90;;;10.27;;
15082;SDS011;7640;53.116;6.878;2022-12-18T14:19:52;15.63;;;10.40;;
15082;SDS011;7640;53.116;6.878;2022-12-18T14:22:21;18.67;;;10.77;;
15082;SDS011;7640;53.116;6.878;2022-12-18T14:25:05;15.23;;;10.07;;
15082;SDS011;7640;53.116;6.878;2022-12-18T14:27:44;17.90;;;10.80;;
15082;SDS011;7640;53.116;6.878;2022-12-18T14:30:24;17.60;;;10.83;;
15082;SDS011;7640;53.116;6.878;2022-12-18T14:33:03;14.70;;;10.57;;
15082;SDS011;7640;53.116;6.878;2022-12-18T14:35:38;15.80;;;10.87;;
15082;SDS011;7640;53.116;6.878;2022-12-18T14:38:09;16.83;;;10.67;;
15082;SDS011;7640;53.116;6.878;2022-12-18T14:40:47;20.43;;;11.67;;
15082;SDS011;7640;53.116;6.878;2022-12-18T14:43:19;17.23;;;10.97;;
15082;SDS011;7640;53.116;6.878;2022-12-18T14:45:48;17.17;;;11.20;;
15082;SDS011;7640;53.116;6.878;2022-12-18T14:48:18;18.77;;;11.13;;
15082;SDS011;7640;53.116;6.878;2022-12-18T14:51:00;17.60;;;12.10;;
15082;SDS011;7640;53.116;6.878;2022-12-18T14:53:35;17.37;;;11.37;;
15082;SDS011;7640;53.116;6.878;2022-12-18T14:56:13;16.10;;;11.40;;
15082;SDS011;7640;53.116;6.878;2022-12-18T14:58:45;19.93;;;12.33;;
15082;SDS011;7640;53.116;6.878;2022-12-18T15:01:19;21.07;;;11.80;;
15082;SDS011;7640;53.116;6.878;2022-12-18T15:03:52;20.90;;;13.37;;
15082;SDS011;7640;53.116;6.878;2022-12-18T15:06:25;18.77;;;12.80;;
15082;SDS011;7640;53.116;6.878;2022-12-18T15:08:58;16.70;;;11.80;;
15082;SDS011;7640;53.116;6.878;2022-12-18T15:11:32;20.10;;;12.67;;
15082;SDS011;7640;53.116;6.878;2022-12-18T15:16:59;21.60;;;12.20;;
15082;SDS011;7640;53.116;6.878;2022-12-18T15:19:35;19.97;;;11.87;;
15082;SDS011;7640;53.116;6.878;2022-12-18T15:22:17;21.23;;;12.83;;